Time;durP1;ratioP1;P1;durP2;ratioP2;P2;SDS_P1;SDS_P2;PMS_P1;PMS_P2;Temp;Humidity;BMP_temperature;BMP_pressure;BME280_temperature;BME280_humidity;BME280_pressure;Samples;Min_cycle;Max_cycle;Signal;HPM_P1;HPM_P2
2021/10/28 00:12:59;;;;;;;5.90;5.40;;;4.80;99.90;;;;;;6205609;23;20437;-89
2021/10/28 00:15:55;;;;;;;5.77;5.17;;;4.70;99.90;;;;;;6178714;23;20410;-89
2021/10/28 00:18:39;;;;;;;6.30;5.43;;;4.70;99.90;;;;;;6184202;23;20426;-89
2021/10/28 00:21:06;;;;;;;6.23;5.73;;;4.70;99.90;;;;;;6205716;23;20386;-90
2021/10/28 00:23:32;;;;;;;5.07;4.57;;;4.60;99.90;;;;;;6205937;23;20409;-90
2021/10/28 00:25:58;;;;;;;5.50;5.10;;;4.50;99.90;;;;;;6203404;23;20480;-89
2021/10/28 00:28:26;;;;;;;5.03;4.63;;;4.40;99.90;;;;;;6205292;23;20500;-88
2021/10/28 00:30:54;;;;;;;6.00;5.40;;;4.40;99.90;;;;;;6206082;23;20750;-89
2021/10/28 00:33:38;;;;;;;6.00;5.40;;;4.40;99.90;;;;;;6207430;23;20397;-89
2021/10/28 00:36:06;;;;;;;6.50;5.90;;;4.40;99.90;;;;;;6203465;23;20407;-89
2021/10/28 00:38:33;;;;;;;6.30;5.70;;;4.30;99.90;;;;;;6206071;23;20409;-88
2021/10/28 00:41:01;;;;;;;6.27;5.67;;;4.30;99.90;;;;;;6202179;23;20398;-89
2021/10/28 00:43:27;;;;;;;5.87;5.37;;;4.20;99.90;;;;;;6203444;23;20428;-89
2021/10/28 00:45:53;;;;;;;5.47;4.97;;;4.30;99.90;;;;;;6205008;23;20428;-89
2021/10/28 00:48:19;;;;;;;5.53;5.13;;;4.20;99.90;;;;;;6204763;23;20442;-89
2021/10/28 00:50:49;;;;;;;5.30;4.90;;;4.30;99.90;;;;;;6204943;23;20787;-89
2021/10/28 00:53:16;;;;;;;5.37;4.87;;;4.30;99.90;;;;;;6204918;23;20462;-89
2021/10/28 00:55:42;;;;;;;4.80;4.40;;;4.30;99.90;;;;;;6203228;23;20785;-89
2021/10/28 01:08:54;;;;;;;6.60;6.00;;;4.20;99.90;;;;;;6283818;21;1402675;-91
2021/10/28 01:11:20;;;;;;;5.80;5.30;;;4.20;99.90;;;;;;6262245;22;20409;-91
2021/10/28 01:13:48;;;;;;;6.20;5.60;;;4.20;99.90;;;;;;6275969;22;20403;-91
2021/10/28 01:16:18;;;;;;;6.10;5.60;;;4.30;99.90;;;;;;6275818;22;20183;-91
2021/10/28 01:21:39;;;;;;;8.63;7.83;;;4.30;99.90;;;;;;6276273;22;20391;-92
2021/10/28 01:24:04;;;;;;;7.37;6.67;;;4.10;99.90;;;;;;6275951;22;20396;-92
2021/10/28 01:26:35;;;;;;;7.53;6.83;;;4.10;99.90;;;;;;6275465;22;20463;-92
2021/10/28 01:29:05;;;;;;;7.03;6.27;;;4.10;99.90;;;;;;6271199;22;20165;-90
2021/10/28 01:31:33;;;;;;;7.43;6.63;;;4.20;99.90;;;;;;6294673;22;20456;-91
2021/10/28 01:34:01;;;;;;;6.67;5.93;;;4.30;99.90;;;;;;6279429;22;20398;-91
2021/10/28 01:36:27;;;;;;;8.00;6.63;;;4.30;99.90;;;;;;6272752;22;20478;-91
2021/10/28 01:38:55;;;;;;;8.27;7.47;;;4.20;99.90;;;;;;6272644;22;20396;-90
2021/10/28 01:41:22;;;;;;;8.97;7.30;;;4.20;99.90;;;;;;6271786;22;20417;-90
2021/10/28 01:43:47;;;;;;;9.40;7.53;;;4.10;99.90;;;;;;6273113;22;20761;-90
2021/10/28 01:46:13;;;;;;;7.77;6.73;;;4.10;99.90;;;;;;6273230;22;20446;-91
2021/10/28 01:48:45;;;;;;;8.63;6.50;;;4.10;99.90;;;;;;6273777;22;20527;-90
2021/10/28 01:51:23;;;;;;;6.90;6.13;;;4.10;99.90;;;;;;6272608;22;20212;-90
2021/10/28 01:53:50;;;;;;;6.73;6.13;;;4.20;99.90;;;;;;6272159;22;20696;-89
2021/10/28 01:56:16;;;;;;;7.50;6.73;;;4.10;99.90;;;;;;6273659;22;20442;-90
2021/10/28 01:58:42;;;;;;;10.10;7.97;;;4.10;99.90;;;;;;6273205;22;20396;-90
2021/10/28 02:01:08;;;;;;;8.10;7.30;;;4.00;99.90;;;;;;6271237;22;20629;-90
2021/10/28 02:03:34;;;;;;;8.90;7.87;;;4.00;99.90;;;;;;6268960;22;20217;-90
2021/10/28 02:06:01;;;;;;;14.90;9.00;;;4.00;99.90;;;;;;6269476;22;20400;-90
2021/10/28 02:08:27;;;;;;;11.50;9.30;;;4.00;99.90;;;;;;6266212;22;20416;-91
2021/10/28 02:10:54;;;;;;;10.50;8.17;;;4.00;99.90;;;;;;6264479;22;20468;-91
2021/10/28 02:13:21;;;;;;;11.80;9.10;;;4.10;99.90;;;;;;6265226;22;20421;-90
2021/10/28 02:15:47;;;;;;;19.93;10.47;;;4.00;99.90;;;;;;6264577;22;20391;-90
2021/10/28 02:18:17;;;;;;;12.60;10.07;;;3.90;99.90;;;;;;6266374;22;20442;-90
2021/10/28 02:20:42;;;;;;;15.60;12.17;;;3.90;99.90;;;;;;6264845;22;20393;-91
2021/10/28 02:23:09;;;;;;;52.27;17.47;;;3.90;99.90;;;;;;6265312;22;20397;-90
2021/10/28 02:25:36;;;;;;;47.13;16.33;;;4.00;99.90;;;;;;6263769;22;20166;-90
2021/10/28 02:28:02;;;;;;;45.77;17.50;;;4.10;99.90;;;;;;6264984;22;20438;-91
2021/10/28 02:30:28;;;;;;;53.60;18.27;;;4.10;99.90;;;;;;6265695;22;20400;-91
2021/10/28 02:32:59;;;;;;;28.07;16.40;;;4.10;99.90;;;;;;6265816;22;20413;-91
2021/10/28 02:35:31;;;;;;;28.73;15.37;;;4.10;99.90;;;;;;6266200;22;20450;-91
2021/10/28 02:38:06;;;;;;;28.30;12.40;;;4.10;99.90;;;;;;6267657;22;20498;-92
2021/10/28 02:40:39;;;;;;;29.57;10.73;;;3.90;99.90;;;;;;6265698;22;20398;-91
2021/10/28 02:43:05;;;;;;;21.97;12.20;;;3.80;99.90;;;;;;6266793;22;20478;-91
2021/10/28 02:45:30;;;;;;;14.87;11.70;;;3.70;99.90;;;;;;6265689;22;20462;-90
2021/10/28 02:47:57;;;;;;;23.27;10.87;;;3.60;99.90;;;;;;6266486;22;20163;-91
2021/10/28 02:50:23;;;;;;;12.37;9.90;;;3.50;99.90;;;;;;6265657;22;20597;-91
2021/10/28 02:52:49;;;;;;;23.50;12.17;;;3.40;99.90;;;;;;6263215;22;20397;-91
2021/10/28 02:55:24;;;;;;;13.27;10.80;;;3.40;99.90;;;;;;6265218;22;20405;-91
2021/10/28 02:57:52;;;;;;;20.97;12.83;;;3.40;99.90;;;;;;6265735;22;20217;-92
2021/10/28 03:00:21;;;;;;;14.33;11.83;;;3.50;99.90;;;;;;6272678;22;20398;-90
2021/10/28 03:02:48;;;;;;;14.67;11.73;;;3.50;99.90;;;;;;6278994;22;20392;-92
2021/10/28 03:05:15;;;;;;;17.57;11.83;;;3.50;99.90;;;;;;6268453;22;20409;-90
2021/10/28 03:07:41;;;;;;;17.23;12.50;;;3.40;99.90;;;;;;6265940;22;20731;-91
2021/10/28 03:10:10;;;;;;;13.50;12.10;;;3.30;99.90;;;;;;6264214;22;20402;-90
2021/10/28 03:12:38;;;;;;;11.70;10.50;;;3.40;99.90;;;;;;6290269;22;20493;-90
2021/10/28 03:15:06;;;;;;;13.83;12.17;;;3.30;99.90;;;;;;6265769;22;20508;-90
2021/10/28 03:25:52;;;;;;;13.83;11.47;;;3.20;99.90;;;;;;6266019;22;20556;-91
2021/10/28 03:28:19;;;;;;;15.63;12.10;;;3.10;99.90;;;;;;6264397;22;20783;-90
2021/10/28 03:30:50;;;;;;;14.00;12.10;;;3.20;99.90;;;;;;6265155;22;20252;-91
2021/10/28 03:33:22;;;;;;;11.03;9.90;;;3.40;99.90;;;;;;6264832;22;20406;-90
2021/10/28 03:35:51;;;;;;;15.50;12.10;;;3.50;99.90;;;;;;6265105;22;20882;-90
2021/10/28 03:51:50;;;;;;;14.90;11.27;;;3.50;99.90;;;;;;6266583;22;20390;-91
2021/10/28 04:02:33;;;;;;;10.90;9.73;;;3.40;99.90;;;;;;6264920;22;20390;-87
2021/10/28 04:31:32;;;;;;;11.50;9.60;;;3.10;99.90;;;;;;6283324;22;20626;-91
2021/10/28 04:34:31;;;;;;;10.37;9.27;;;3.00;99.90;;;;;;6270460;22;20464;-91
2021/10/28 04:37:00;;;;;;;10.50;9.20;;;2.90;99.90;;;;;;6264329;22;20451;-92
2021/10/28 04:40:00;;;;;;;11.40;8.90;;;3.00;99.90;;;;;;6264083;22;20393;-92
2021/10/28 04:42:26;;;;;;;10.10;9.03;;;3.00;99.90;;;;;;6264986;22;20460;-91
2021/10/28 04:44:52;;;;;;;9.53;8.63;;;3.20;99.90;;;;;;6261864;22;20493;-91
2021/10/28 04:47:18;;;;;;;11.40;10.20;;;3.00;99.90;;;;;;6264397;22;20493;-91
2021/10/28 04:49:54;;;;;;;12.70;11.13;;;2.90;99.90;;;;;;6264063;22;20397;-91
2021/10/28 04:52:22;;;;;;;18.90;14.33;;;2.90;99.90;;;;;;6266097;22;20162;-91
2021/10/28 04:54:49;;;;;;;26.33;13.10;;;3.10;99.90;;;;;;6262854;22;20877;-91
2021/10/28 04:57:24;;;;;;;22.60;13.20;;;3.10;99.90;;;;;;6264565;22;20759;-94
2021/10/28 04:59:55;;;;;;;18.90;13.70;;;3.10;99.90;;;;;;6266107;22;20819;-94
2021/10/28 05:02:28;;;;;;;18.70;13.37;;;3.20;99.90;;;;;;6266103;22;20468;-91
2021/10/28 05:05:05;;;;;;;18.53;11.93;;;3.20;99.90;;;;;;6265272;22;20394;-94
2021/10/28 05:07:34;;;;;;;17.80;12.93;;;3.20;99.90;;;;;;6264565;22;20392;-96
2021/10/28 05:10:33;;;;;;;19.73;13.37;;;3.30;99.90;;;;;;6271131;22;20392;-96
2021/10/28 05:12:57;;;;;;;17.70;12.30;;;3.30;99.90;;;;;;6273067;22;20497;-96
2021/10/28 05:15:34;;;;;;;18.27;13.40;;;3.50;99.90;;;;;;6268289;22;20415;-93
2021/10/28 05:18:02;;;;;;;18.57;12.90;;;3.40;99.90;;;;;;6268837;22;20471;-96
2021/10/28 05:20:41;;;;;;;26.37;13.20;;;3.30;99.90;;;;;;6267243;22;20422;-95
2021/10/28 05:23:37;;;;;;;;;;;;;;;;;;;;;
2021/10/28 05:26:04;;;;;;;24.70;13.57;;;3.10;99.90;;;;;;6265324;22;21150;-91
2021/10/28 05:28:39;;;;;;;66.40;15.93;;;3.20;99.90;;;;;;6240679;22;20879;-94
2021/10/28 05:31:07;;;;;;;24.50;15.70;;;3.20;99.90;;;;;;6268051;22;20536;-94
2021/10/28 05:33:36;;;;;;;23.13;14.63;;;3.10;99.90;;;;;;6264270;22;20493;-94
2021/10/28 05:36:02;;;;;;;22.60;13.60;;;3.10;99.90;;;;;;6264279;22;20424;-94
2021/10/28 05:38:39;;;;;;;20.97;14.80;;;3.00;99.90;;;;;;6266103;22;20411;-95
2021/10/28 05:41:29;;;;;;;71.53;15.40;;;3.00;99.90;;;;;;6255373;22;20396;-95
2021/10/28 05:43:58;;;;;;;19.13;12.87;;;3.00;99.90;;;;;;6270882;22;20488;-94
2021/10/28 05:46:25;;;;;;;20.57;14.50;;;2.80;99.90;;;;;;6264675;22;20381;-89
2021/10/28 05:48:52;;;;;;;15.47;12.30;;;2.80;99.90;;;;;;6253552;22;20875;-90
2021/10/28 05:51:22;;;;;;;36.03;15.90;;;2.90;99.90;;;;;;6260520;22;20681;-89
2021/10/28 05:53:57;;;;;;;17.23;11.30;;;2.90;99.90;;;;;;6263605;22;20482;-91
2021/10/28 05:56:52;;;;;;;16.77;12.30;;;2.80;99.90;;;;;;6279445;22;20436;-95
2021/10/28 05:59:28;;;;;;;15.27;11.20;;;2.60;99.90;;;;;;6265788;22;20420;-95
2021/10/28 06:01:56;;;;;;;15.00;11.30;;;2.60;99.90;;;;;;6289705;22;20413;-94
2021/10/28 06:04:27;;;;;;;16.00;11.90;;;2.60;99.90;;;;;;6256220;22;20397;-95
2021/10/28 06:06:53;;;;;;;19.90;11.97;;;2.60;99.90;;;;;;6265753;22;20404;-96
2021/10/28 06:09:19;;;;;;;15.67;11.47;;;2.80;99.90;;;;;;6270443;22;20541;-95
2021/10/28 06:11:46;;;;;;;20.40;13.60;;;2.90;99.90;;;;;;6246485;22;20415;-94
2021/10/28 06:14:21;;;;;;;20.87;13.10;;;3.00;99.90;;;;;;6263687;22;20397;-96
2021/10/28 06:16:53;;;;;;;23.70;13.50;;;3.10;99.90;;;;;;6275179;22;20428;-96
2021/10/28 06:19:19;;;;;;;18.70;12.90;;;3.10;99.90;;;;;;6284446;22;20469;-96
2021/10/28 06:21:48;;;;;;;15.70;11.40;;;3.10;99.90;;;;;;6278084;22;20400;-96
2021/10/28 06:24:16;;;;;;;35.13;18.97;;;3.10;99.90;;;;;;6278495;22;20439;-96
2021/10/28 06:26:45;;;;;;;24.13;14.97;;;3.10;99.90;;;;;;6273828;22;20455;-96
2021/10/28 06:29:13;;;;;;;23.77;14.40;;;3.10;99.90;;;;;;6267556;22;20424;-95
2021/10/28 06:34:43;;;;;;;19.20;15.13;;;2.90;99.90;;;;;;6223245;22;20431;-94
2021/10/28 06:37:09;;;;;;;13.40;10.50;;;2.90;99.90;;;;;;6275121;22;20775;-93
2021/10/28 06:39:35;;;;;;;12.63;11.10;;;2.90;99.90;;;;;;6287467;22;20393;-96
2021/10/28 06:42:03;;;;;;;13.37;11.23;;;3.00;99.90;;;;;;6275391;22;20388;-95
2021/10/28 06:45:01;;;;;;;;;;;;;;;;;;;;;
2021/10/28 06:48:10;;;;;;;;;;;;;;;;;;;;;
2021/10/28 06:50:55;;;;;;;13.23;9.80;;;3.30;99.90;;;;;;6192327;22;20460;-95
2021/10/28 06:53:24;;;;;;;13.53;11.73;;;3.40;99.90;;;;;;6270344;22;20424;-96
2021/10/28 06:56:23;;;;;;;;;;;;;;;;;;;;;
2021/10/28 07:04:38;;;;;;;14.73;11.97;;;3.20;99.90;;;;;;6278596;22;20999;-96
2021/10/28 07:07:06;;;;;;;15.43;13.23;;;3.20;99.90;;;;;;6273223;22;20388;-96
2021/10/28 07:09:38;;;;;;;14.83;12.30;;;3.10;99.90;;;;;;6271668;22;20621;-94
2021/10/28 07:18:36;;;;;;;;;;;;;;;;;;;;;
2021/10/28 07:26:51;;;;;;;16.27;13.87;;;3.80;99.90;;;;;;6272323;22;20384;-96
2021/10/28 08:20:16;;;;;;;9.07;8.17;;;7.30;99.90;;;;;;6268715;22;20483;-94
2021/10/28 08:22:48;;;;;;;8.43;7.63;;;7.60;99.90;;;;;;6270328;22;20871;-95
2021/10/28 08:30:43;;;;;;;10.30;7.90;;;7.80;99.90;;;;;;6261000;22;20400;-85
2021/10/28 08:33:12;;;;;;;8.73;7.93;;;8.00;99.90;;;;;;6261002;22;20573;-90
2021/10/28 08:35:38;;;;;;;8.43;7.67;;;8.10;99.90;;;;;;6259724;22;20683;-89
2021/10/28 08:38:05;;;;;;;8.73;7.90;;;8.30;99.90;;;;;;6258336;22;20440;-87
2021/10/28 08:40:31;;;;;;;8.27;7.33;;;8.40;99.90;;;;;;6260099;22;20393;-88
2021/10/28 08:42:59;;;;;;;9.30;8.33;;;8.20;99.90;;;;;;6262080;22;20400;-93
2021/10/28 08:45:32;;;;;;;9.23;8.20;;;8.00;99.90;;;;;;6261750;22;20408;-90
2021/10/28 08:48:00;;;;;;;9.27;8.40;;;8.40;99.90;;;;;;6261764;22;20403;-91
2021/10/28 08:55:37;;;;;;;9.53;8.63;;;9.30;99.90;;;;;;6265017;22;20721;-95
2021/10/28 09:24:08;;;;;;;15.60;11.80;;;11.20;99.90;;;;;;6265695;22;20524;-92
2021/10/28 09:35:10;;;;;;;13.60;12.20;;;10.80;99.90;;;;;;6264726;22;20387;-90
2021/10/28 09:44:12;;;;;;;14.30;12.80;;;11.70;99.90;;;;;;6260950;22;20392;-91
2021/10/28 09:46:50;;;;;;;14.80;13.30;;;11.80;99.90;;;;;;6255777;22;21606;-92
2021/10/28 09:52:15;;;;;;;16.73;14.83;;;12.70;99.90;;;;;;6259378;22;20764;-92
2021/10/28 10:00:15;;;;;;;14.83;13.23;;;13.10;99.90;;;;;;6257779;22;20408;-92
2021/10/28 10:02:49;;;;;;;16.20;13.33;;;12.90;99.90;;;;;;6257001;22;20454;-91
2021/10/28 10:05:21;;;;;;;17.07;13.80;;;12.90;99.90;;;;;;6257060;22;20487;-90
2021/10/28 10:07:51;;;;;;;20.63;13.73;;;13.10;99.90;;;;;;6256288;22;20425;-91
2021/10/28 10:10:27;;;;;;;16.37;14.50;;;13.50;99.90;;;;;;6258918;22;20490;-91
2021/10/28 10:12:56;;;;;;;15.87;14.20;;;13.60;99.90;;;;;;6259000;22;20392;-91
2021/10/28 10:15:25;;;;;;;16.67;14.30;;;13.50;99.90;;;;;;6256700;22;20428;-91
2021/10/28 10:18:01;;;;;;;18.20;15.53;;;13.60;99.90;;;;;;6256311;22;20486;-92
2021/10/28 10:20:36;;;;;;;17.47;14.70;;;13.70;99.90;;;;;;6259217;22;20411;-93
2021/10/28 12:23:15;;;;;;;11.20;10.10;;;25.10;68.60;;;;;;6266479;22;20388;-91
2021/10/28 12:53:50;;;;;;;11.73;10.63;;;24.20;68.10;;;;;;6168289;23;20894;-89
2021/10/28 13:02:49;;;;;;;11.10;10.10;;;22.10;73.80;;;;;;6262896;22;20941;-89
2021/10/28 13:38:21;;;;;;;11.10;10.10;;;16.90;91.30;;;;;;6263300;22;20387;-89
2021/10/28 13:49:08;;;;;;;11.00;9.90;;;16.60;92.50;;;;;;6261827;22;20439;-90
2021/10/28 13:51:40;;;;;;;11.80;10.43;;;16.80;93.00;;;;;;6262970;22;20388;-88
2021/10/28 13:54:30;;;;;;;11.17;10.03;;;16.80;93.10;;;;;;6262937;22;20393;-89
2021/10/28 14:27:04;;;;;;;24.87;20.20;;;15.70;97.20;;;;;;6267423;22;20443;-93
2021/10/28 15:00:02;;;;;;;13.20;11.80;;;14.80;99.90;;;;;;6267125;22;20492;-92
2021/10/28 15:03:11;;;;;;;13.90;12.43;;;14.70;99.90;;;;;;6275627;22;20385;-92
2021/10/28 16:22:49;;;;;;;10.57;9.10;;;10.90;99.90;;;;;;6266752;22;20416;-92
2021/10/28 16:25:24;;;;;;;10.47;9.30;;;10.80;99.90;;;;;;6264176;22;20812;-91
2021/10/28 16:27:49;;;;;;;12.30;9.43;;;10.70;99.90;;;;;;6264576;22;20189;-91
2021/10/28 16:30:15;;;;;;;10.40;9.30;;;10.70;99.90;;;;;;6265679;22;20396;-92
2021/10/28 16:32:43;;;;;;;15.50;11.67;;;10.70;99.90;;;;;;6277423;22;20212;-91
2021/10/28 16:35:08;;;;;;;13.50;11.20;;;10.60;99.90;;;;;;6278809;22;20749;-92
2021/10/28 16:37:35;;;;;;;19.20;16.00;;;10.40;99.90;;;;;;6269689;22;20399;-92
2021/10/28 16:40:03;;;;;;;17.17;14.30;;;10.30;99.90;;;;;;6265249;22;20273;-92
2021/10/28 16:42:30;;;;;;;11.33;10.13;;;10.20;99.90;;;;;;6266651;22;20933;-91
2021/10/28 16:44:55;;;;;;;14.93;10.50;;;10.30;99.90;;;;;;6265184;22;20401;-92
2021/10/28 16:47:21;;;;;;;11.73;9.40;;;10.30;99.90;;;;;;6265456;22;20554;-91
2021/10/28 16:49:47;;;;;;;11.43;10.20;;;10.30;99.90;;;;;;6273255;22;20497;-91
2021/10/28 16:52:15;;;;;;;11.43;9.87;;;10.10;99.90;;;;;;6278297;22;20173;-91
2021/10/28 16:54:41;;;;;;;11.77;9.80;;;10.00;99.90;;;;;;6274880;22;20353;-91
2021/10/28 16:57:29;;;;;;;10.80;9.70;;;9.90;99.90;;;;;;6264973;22;20388;-91
2021/10/28 16:59:55;;;;;;;12.97;10.50;;;9.70;99.90;;;;;;6253023;22;20166;-91
2021/10/28 17:02:28;;;;;;;12.27;10.90;;;9.80;99.90;;;;;;6257910;22;20404;-91
2021/10/28 17:04:54;;;;;;;11.40;10.00;;;9.70;99.90;;;;;;6257524;22;20635;-92
2021/10/28 17:07:20;;;;;;;13.30;10.07;;;9.80;99.90;;;;;;6257726;22;20498;-91
2021/10/28 17:09:47;;;;;;;12.30;9.00;;;9.70;99.90;;;;;;6233941;22;20178;-91
2021/10/28 17:12:14;;;;;;;11.43;9.57;;;9.60;99.90;;;;;;6257078;22;20175;-91
2021/10/28 17:14:40;;;;;;;12.00;8.50;;;9.50;99.90;;;;;;6256398;22;20480;-91
2021/10/28 17:17:16;;;;;;;12.53;8.90;;;9.40;99.90;;;;;;6259698;22;20389;-91
2021/10/28 17:19:45;;;;;;;10.23;8.80;;;9.30;99.90;;;;;;6235157;22;20411;-91
2021/10/28 17:22:11;;;;;;;10.93;9.87;;;9.30;99.90;;;;;;6254396;22;20388;-91
2021/10/28 17:24:45;;;;;;;11.20;8.87;;;9.30;99.90;;;;;;6257624;22;20408;-91
2021/10/28 17:27:11;;;;;;;10.27;9.27;;;9.30;99.90;;;;;;6259648;22;20664;-92
2021/10/28 17:29:39;;;;;;;11.70;10.10;;;9.20;99.90;;;;;;6260354;22;20408;-92
2021/10/28 17:32:11;;;;;;;11.00;9.80;;;9.20;99.90;;;;;;6258844;22;20403;-92
2021/10/28 17:34:36;;;;;;;10.37;8.23;;;9.10;99.90;;;;;;6260894;22;20404;-92
2021/10/28 17:37:04;;;;;;;10.17;9.03;;;9.10;99.90;;;;;;6260183;22;20871;-92
2021/10/28 17:39:31;;;;;;;10.50;7.70;;;9.00;99.90;;;;;;6258993;22;20178;-91
2021/10/28 17:42:01;;;;;;;10.03;8.47;;;9.00;99.90;;;;;;6261914;22;20824;-91
2021/10/28 17:44:37;;;;;;;10.80;8.17;;;8.90;99.90;;;;;;6236005;22;20450;-93
2021/10/28 17:47:05;;;;;;;9.03;7.90;;;8.80;99.90;;;;;;6260176;22;20459;-92
2021/10/28 17:49:31;;;;;;;11.30;9.20;;;8.80;99.90;;;;;;6263005;22;20409;-92
2021/10/28 17:51:56;;;;;;;9.17;8.20;;;8.80;99.90;;;;;;6261391;22;20439;-91
2021/10/28 17:54:22;;;;;;;13.13;9.10;;;8.70;99.90;;;;;;6262053;22;20169;-91
2021/10/28 17:56:48;;;;;;;10.53;9.43;;;8.70;99.90;;;;;;6260836;22;20755;-92
2021/10/28 17:59:14;;;;;;;12.63;8.77;;;8.60;99.90;;;;;;6259734;22;20169;-91
2021/10/28 18:01:40;;;;;;;10.13;9.00;;;8.50;99.90;;;;;;6261647;22;20174;-93
2021/10/28 18:04:07;;;;;;;12.50;8.50;;;8.40;99.90;;;;;;6278863;22;20407;-92
2021/10/28 18:06:33;;;;;;;9.67;8.40;;;8.40;99.90;;;;;;6274129;22;20980;-92
2021/10/28 18:09:02;;;;;;;11.57;8.73;;;8.40;99.90;;;;;;6265226;22;20400;-92
2021/10/28 18:11:29;;;;;;;11.37;10.17;;;8.30;99.90;;;;;;6259997;22;20423;-91
2021/10/28 18:13:57;;;;;;;12.70;9.10;;;8.20;99.90;;;;;;6261737;22;20872;-93
2021/10/28 18:16:26;;;;;;;10.20;9.20;;;8.20;99.90;;;;;;6262446;22;20714;-92
2021/10/28 18:19:01;;;;;;;12.70;8.80;;;8.10;99.90;;;;;;6260495;22;20738;-93
2021/10/28 18:21:29;;;;;;;12.87;9.57;;;8.10;99.90;;;;;;6261488;22;20815;-91
2021/10/28 18:23:57;;;;;;;12.60;10.07;;;8.00;99.90;;;;;;6254388;22;20629;-92
2021/10/28 18:26:24;;;;;;;11.20;9.77;;;7.90;99.90;;;;;;6258967;22;20708;-92
2021/10/28 18:28:52;;;;;;;11.77;9.87;;;7.90;99.90;;;;;;6260768;22;20986;-94
2021/10/28 18:31:18;;;;;;;10.33;9.33;;;7.80;99.90;;;;;;6261375;22;20407;-93
2021/10/28 18:33:45;;;;;;;10.23;9.23;;;7.90;99.90;;;;;;6261632;22;20872;-93
2021/10/28 18:36:12;;;;;;;10.17;8.90;;;7.90;99.90;;;;;;6260930;22;20404;-93
2021/10/28 18:38:44;;;;;;;10.87;9.20;;;8.00;99.90;;;;;;6261581;22;20928;-92
2021/10/28 18:41:11;;;;;;;12.53;9.47;;;8.00;99.90;;;;;;6261543;22;20401;-93
2021/10/28 18:43:41;;;;;;;13.00;9.80;;;8.00;99.90;;;;;;6260093;22;20396;-91
2021/10/28 18:46:08;;;;;;;11.77;8.97;;;8.00;99.90;;;;;;6261073;22;20395;-92
2021/10/28 18:48:35;;;;;;;10.63;9.47;;;8.00;99.90;;;;;;6257903;22;20532;-92
2021/10/28 18:51:01;;;;;;;10.17;8.63;;;8.00;99.90;;;;;;6233025;22;20898;-91
2021/10/28 18:53:28;;;;;;;11.40;9.20;;;7.80;99.90;;;;;;6236918;22;20476;-92
2021/10/28 18:55:57;;;;;;;10.30;8.90;;;7.80;99.90;;;;;;6259976;22;20396;-93
2021/10/28 18:58:23;;;;;;;11.33;8.60;;;7.80;99.90;;;;;;6238099;22;20750;-92
2021/10/28 19:00:50;;;;;;;11.30;8.03;;;7.90;99.90;;;;;;6267810;22;20417;-93
2021/10/28 19:03:18;;;;;;;10.03;8.00;;;7.80;99.90;;;;;;6266926;22;20165;-93
2021/10/28 19:05:44;;;;;;;9.33;8.43;;;7.70;99.90;;;;;;6268061;22;20841;-91
2021/10/28 19:08:12;;;;;;;10.60;8.80;;;7.70;99.90;;;;;;6264245;22;20536;-92
2021/10/28 19:10:38;;;;;;;12.33;10.03;;;7.80;99.90;;;;;;6247536;22;20412;-91
2021/10/28 19:13:04;;;;;;;11.40;9.43;;;7.70;99.90;;;;;;6273772;22;20405;-92
2021/10/28 19:15:30;;;;;;;10.60;9.17;;;7.60;99.90;;;;;;6270439;22;20919;-91
2021/10/28 19:17:58;;;;;;;13.67;12.27;;;7.60;99.90;;;;;;6267213;22;20174;-92
2021/10/28 19:20:26;;;;;;;13.77;12.03;;;7.60;99.90;;;;;;6267342;22;20192;-92
2021/10/28 19:22:54;;;;;;;12.50;10.57;;;7.60;99.90;;;;;;6268150;22;20427;-91
2021/10/28 19:25:20;;;;;;;13.50;10.57;;;7.60;99.90;;;;;;6265548;22;20418;-91
2021/10/28 19:27:48;;;;;;;12.80;11.50;;;7.50;99.90;;;;;;6266987;22;20498;-91
2021/10/28 19:32:50;;;;;;;11.23;10.03;;;7.40;99.90;;;;;;6273850;22;20384;-92
2021/10/28 19:35:17;;;;;;;11.73;9.90;;;7.50;99.90;;;;;;6282523;22;20458;-92
2021/10/28 19:47:30;;;;;;;12.47;11.10;;;7.10;99.90;;;;;;6276086;22;20189;-95
2021/10/28 19:49:56;;;;;;;15.43;10.80;;;7.10;99.90;;;;;;6273929;22;20766;-93
2021/10/28 19:52:22;;;;;;;10.13;9.13;;;7.00;99.90;;;;;;6272934;22;20415;-93
2021/10/28 19:54:51;;;;;;;9.17;8.17;;;7.00;99.90;;;;;;6270666;22;20193;-94
2021/10/28 19:57:20;;;;;;;10.97;9.17;;;7.00;99.90;;;;;;6277601;22;20393;-94
2021/10/28 20:00:07;;;;;;;12.40;9.67;;;7.10;99.90;;;;;;6270170;22;20384;-93
2021/10/28 20:21:02;;;;;;;11.40;9.43;;;6.80;99.90;;;;;;6273173;22;20384;-94
2021/10/28 20:23:28;;;;;;;10.97;9.33;;;6.90;99.90;;;;;;6269272;22;20934;-94
2021/10/28 20:25:55;;;;;;;11.30;9.10;;;6.90;99.90;;;;;;6267819;22;20388;-92
2021/10/28 20:28:20;;;;;;;9.73;8.77;;;6.90;99.90;;;;;;6270145;22;20289;-94
2021/10/28 20:30:58;;;;;;;10.67;8.73;;;6.80;99.90;;;;;;6270703;22;20408;-93
2021/10/28 20:33:28;;;;;;;9.97;9.07;;;6.80;99.90;;;;;;6271088;22;20388;-94
2021/10/28 20:36:10;;;;;;;11.57;9.30;;;6.70;99.90;;;;;;6275715;22;21320;-94
2021/10/28 20:38:36;;;;;;;9.53;8.57;;;6.70;99.90;;;;;;6272191;22;20407;-94
2021/10/28 20:41:02;;;;;;;9.87;8.80;;;6.60;99.90;;;;;;6273743;22;20399;-93
2021/10/28 20:43:28;;;;;;;10.63;9.13;;;6.60;99.90;;;;;;6271978;22;20394;-92
2021/10/28 20:45:57;;;;;;;9.80;8.90;;;6.60;99.90;;;;;;6271160;22;20476;-93
2021/10/28 20:48:23;;;;;;;10.60;9.27;;;6.50;99.90;;;;;;6273220;22;21563;-92
2021/10/28 20:50:59;;;;;;;9.23;8.43;;;6.50;99.90;;;;;;6273180;22;20404;-93
2021/10/28 20:53:24;;;;;;;7.57;6.87;;;6.50;99.90;;;;;;6271577;22;20165;-93
2021/10/28 20:55:50;;;;;;;7.03;6.43;;;6.50;99.90;;;;;;6272447;22;20724;-93
2021/10/28 20:58:17;;;;;;;7.93;7.13;;;6.50;99.90;;;;;;6271620;22;20237;-94
2021/10/28 21:00:43;;;;;;;8.17;7.47;;;6.60;99.90;;;;;;6273085;22;20162;-93
2021/10/28 21:03:08;;;;;;;7.97;7.27;;;6.60;99.90;;;;;;6268431;22;20913;-91
2021/10/28 21:05:34;;;;;;;8.03;7.33;;;6.60;99.90;;;;;;6283928;22;20389;-92
2021/10/28 21:08:00;;;;;;;8.60;7.70;;;6.50;99.90;;;;;;6277540;22;20280;-92
2021/10/28 21:10:28;;;;;;;9.70;8.80;;;6.50;99.90;;;;;;6269008;22;20503;-91
2021/10/28 21:12:55;;;;;;;9.60;7.87;;;6.40;99.90;;;;;;6266813;22;20162;-92
2021/10/28 21:15:24;;;;;;;9.13;8.20;;;6.40;99.90;;;;;;6270463;22;20394;-92
2021/10/28 21:17:53;;;;;;;8.60;7.70;;;6.40;99.90;;;;;;6272832;22;20385;-92
2021/10/28 21:20:22;;;;;;;8.93;8.00;;;6.40;99.90;;;;;;6270577;22;20404;-92
2021/10/28 21:22:48;;;;;;;7.90;7.20;;;6.50;99.90;;;;;;6269659;22;20392;-92
2021/10/28 21:25:14;;;;;;;8.03;7.23;;;6.50;99.90;;;;;;6269613;22;20395;-91
2021/10/28 21:27:41;;;;;;;9.70;8.00;;;6.50;99.90;;;;;;6270776;22;20437;-92
2021/10/28 21:30:10;;;;;;;7.70;6.80;;;6.40;99.90;;;;;;6270657;22;20276;-94
2021/10/28 21:32:37;;;;;;;8.40;7.30;;;6.40;99.90;;;;;;6271068;22;20455;-93
2021/10/28 21:35:05;;;;;;;8.97;8.07;;;6.30;99.90;;;;;;6270288;22;20416;-92
2021/10/28 21:37:31;;;;;;;8.13;7.33;;;6.40;99.90;;;;;;6269780;22;20383;-92
2021/10/28 21:39:58;;;;;;;8.00;7.20;;;6.40;99.90;;;;;;6270737;22;20391;-92
2021/10/28 21:42:24;;;;;;;9.37;7.93;;;6.40;99.90;;;;;;6269624;22;20391;-91
2021/10/28 21:44:50;;;;;;;9.43;8.50;;;6.30;99.90;;;;;;6269123;22;20389;-91
2021/10/28 21:47:17;;;;;;;8.20;7.40;;;6.20;99.90;;;;;;6268665;22;21141;-91
2021/10/28 21:49:44;;;;;;;11.17;7.77;;;6.20;99.90;;;;;;6269199;22;20589;-92
2021/10/28 21:52:31;;;;;;;7.80;7.10;;;6.10;99.90;;;;;;6271909;22;20397;-92
2021/10/28 21:57:46;;;;;;;8.83;7.60;;;6.10;99.90;;;;;;6273775;22;20677;-91
2021/10/28 22:24:53;;;;;;;10.60;8.30;;;5.50;99.90;;;;;;6268904;22;20438;-91
2021/10/28 22:27:23;;;;;;;10.40;9.10;;;5.50;99.90;;;;;;6267255;22;20428;-91
2021/10/28 22:29:49;;;;;;;7.60;6.90;;;5.40;99.90;;;;;;6266637;22;20400;-92
2021/10/28 22:32:19;;;;;;;7.70;6.90;;;5.30;99.90;;;;;;6266842;22;20393;-92
2021/10/28 22:34:46;;;;;;;7.63;6.93;;;5.50;99.90;;;;;;6275564;22;20464;-91
2021/10/28 22:37:23;;;;;;;7.90;7.10;;;5.50;99.90;;;;;;6279346;22;20404;-92
2021/10/28 22:40:06;;;;;;;7.03;6.43;;;5.50;99.90;;;;;;6268504;22;20432;-92
2021/10/28 22:42:34;;;;;;;9.07;7.73;;;5.50;99.90;;;;;;6267322;22;21024;-93
2021/10/28 22:45:00;;;;;;;8.97;8.00;;;5.60;99.90;;;;;;6267792;22;21133;-93
2021/10/28 22:47:26;;;;;;;10.50;9.13;;;5.60;99.90;;;;;;6267239;22;20452;-92
2021/10/28 22:49:55;;;;;;;12.60;9.60;;;5.50;99.90;;;;;;6265987;22;20809;-92
2021/10/28 22:52:29;;;;;;;10.27;9.27;;;5.50;99.90;;;;;;6266070;22;20417;-92
2021/10/28 22:54:59;;;;;;;12.80;10.40;;;5.50;99.90;;;;;;6264885;22;20806;-91
2021/10/28 22:57:31;;;;;;;11.63;10.47;;;5.40;99.90;;;;;;6266039;22;20389;-92
2021/10/28 22:59:58;;;;;;;13.00;11.03;;;5.40;99.90;;;;;;6266353;22;20397;-91
2021/10/28 23:21:00;;;;;;;11.60;10.03;;;5.20;99.90;;;;;;6267505;22;20379;-92
2021/10/28 23:23:25;;;;;;;11.70;10.50;;;5.10;99.90;;;;;;6265328;22;20776;-91
2021/10/28 23:25:51;;;;;;;11.23;9.23;;;5.10;99.90;;;;;;6264976;22;20501;-92
2021/10/28 23:28:17;;;;;;;11.00;9.53;;;5.20;99.90;;;;;;6264867;22;20455;-92